sensor_id;sensor_type;location;lat;lon;timestamp;P1;durP1;ratioP1;P2;durP2;ratioP2
59294;SDS011;45067;44.654;20.200;2022-12-29T00:01:39;76.03;;;40.63;;
59294;SDS011;45067;44.654;20.200;2022-12-29T00:04:05;70.82;;;40.70;;
59294;SDS011;45067;44.654;20.200;2022-12-29T00:09:35;69.72;;;36.15;;
59294;SDS011;45067;44.654;20.200;2022-12-29T00:12:02;71.05;;;36.22;;
59294;SDS011;45067;44.654;20.200;2022-12-29T00:14:28;62.08;;;34.00;;
59294;SDS011;45067;44.654;20.200;2022-12-29T00:17:13;65.43;;;36.22;;
59294;SDS011;45067;44.654;20.200;2022-12-29T00:19:39;61.20;;;35.55;;
59294;SDS011;45067;44.654;20.200;2022-12-29T00:22:24;69.78;;;35.45;;
59294;SDS011;45067;44.654;20.200;2022-12-29T00:25:09;64.10;;;33.92;;
59294;SDS011;45067;44.654;20.200;2022-12-29T00:27:54;53.17;;;31.42;;
59294;SDS011;45067;44.654;20.200;2022-12-29T00:30:39;53.58;;;30.77;;
59294;SDS011;45067;44.654;20.200;2022-12-29T00:33:30;52.50;;;30.08;;
59294;SDS011;45067;44.654;20.200;2022-12-29T00:38:53;55.50;;;31.90;;
59294;SDS011;45067;44.654;20.200;2022-12-29T00:41:39;55.83;;;32.17;;
59294;SDS011;45067;44.654;20.200;2022-12-29T00:44:24;57.55;;;32.28;;
59294;SDS011;45067;44.654;20.200;2022-12-29T00:46:50;59.65;;;32.28;;
59294;SDS011;45067;44.654;20.200;2022-12-29T00:49:16;54.40;;;31.42;;
59294;SDS011;45067;44.654;20.200;2022-12-29T00:54:28;54.78;;;30.08;;
59294;SDS011;45067;44.654;20.200;2022-12-29T00:56:54;53.53;;;31.27;;
59294;SDS011;45067;44.654;20.200;2022-12-29T00:59:20;59.83;;;30.90;;
59294;SDS011;45067;44.654;20.200;2022-12-29T01:01:46;53.88;;;30.17;;
59294;SDS011;45067;44.654;20.200;2022-12-29T01:04:13;52.35;;;30.65;;
59294;SDS011;45067;44.654;20.200;2022-12-29T01:06:39;52.17;;;29.10;;
59294;SDS011;45067;44.654;20.200;2022-12-29T01:09:06;52.92;;;30.80;;
59294;SDS011;45067;44.654;20.200;2022-12-29T01:11:50;51.67;;;30.80;;
59294;SDS011;45067;44.654;20.200;2022-12-29T01:14:17;55.17;;;31.75;;
59294;SDS011;45067;44.654;20.200;2022-12-29T01:16:43;55.67;;;30.65;;
59294;SDS011;45067;44.654;20.200;2022-12-29T01:19:10;49.38;;;29.58;;
59294;SDS011;45067;44.654;20.200;2022-12-29T01:21:39;50.53;;;29.52;;
59294;SDS011;45067;44.654;20.200;2022-12-29T01:24:17;52.97;;;30.33;;
59294;SDS011;45067;44.654;20.200;2022-12-29T01:26:44;49.50;;;28.42;;
59294;SDS011;45067;44.654;20.200;2022-12-29T01:29:10;50.40;;;28.17;;
59294;SDS011;45067;44.654;20.200;2022-12-29T01:31:37;49.08;;;29.35;;
59294;SDS011;45067;44.654;20.200;2022-12-29T01:34:03;50.08;;;29.33;;
59294;SDS011;45067;44.654;20.200;2022-12-29T01:36:29;46.97;;;28.40;;
59294;SDS011;45067;44.654;20.200;2022-12-29T01:38:56;54.95;;;30.27;;
59294;SDS011;45067;44.654;20.200;2022-12-29T01:41:22;49.28;;;29.40;;
59294;SDS011;45067;44.654;20.200;2022-12-29T01:48:50;52.72;;;29.92;;
59294;SDS011;45067;44.654;20.200;2022-12-29T01:51:17;52.10;;;30.50;;
59294;SDS011;45067;44.654;20.200;2022-12-29T01:53:43;48.10;;;29.27;;
59294;SDS011;45067;44.654;20.200;2022-12-29T01:56:10;46.03;;;28.75;;
59294;SDS011;45067;44.654;20.200;2022-12-29T01:58:38;50.97;;;28.65;;
59294;SDS011;45067;44.654;20.200;2022-12-29T02:01:05;52.25;;;31.00;;
59294;SDS011;45067;44.654;20.200;2022-12-29T02:03:31;49.80;;;30.13;;
59294;SDS011;45067;44.654;20.200;2022-12-29T02:06:08;53.55;;;29.40;;
59294;SDS011;45067;44.654;20.200;2022-12-29T02:08:36;50.05;;;28.73;;
59294;SDS011;45067;44.654;20.200;2022-12-29T02:11:03;44.92;;;27.83;;
59294;SDS011;45067;44.654;20.200;2022-12-29T02:13:29;53.72;;;29.88;;
59294;SDS011;45067;44.654;20.200;2022-12-29T02:25:53;56.92;;;32.83;;
59294;SDS011;45067;44.654;20.200;2022-12-29T02:33:56;59.80;;;33.88;;
59294;SDS011;45067;44.654;20.200;2022-12-29T02:36:45;59.92;;;34.13;;
59294;SDS011;45067;44.654;20.200;2022-12-29T02:39:36;58.58;;;33.28;;
59294;SDS011;45067;44.654;20.200;2022-12-29T02:53:14;59.42;;;35.38;;
59294;SDS011;45067;44.654;20.200;2022-12-29T02:55:51;57.03;;;31.17;;
59294;SDS011;45067;44.654;20.200;2022-12-29T02:58:19;46.72;;;27.25;;
59294;SDS011;45067;44.654;20.200;2022-12-29T03:00:55;48.40;;;28.65;;
59294;SDS011;45067;44.654;20.200;2022-12-29T03:09:03;41.03;;;24.70;;
59294;SDS011;45067;44.654;20.200;2022-12-29T03:11:41;38.45;;;22.85;;
59294;SDS011;45067;44.654;20.200;2022-12-29T03:14:31;38.85;;;23.45;;
59294;SDS011;45067;44.654;20.200;2022-12-29T03:19:48;41.55;;;24.85;;
59294;SDS011;45067;44.654;20.200;2022-12-29T03:25:23;35.17;;;22.80;;
59294;SDS011;45067;44.654;20.200;2022-12-29T03:27:54;42.88;;;23.00;;
59294;SDS011;45067;44.654;20.200;2022-12-29T03:30:21;37.78;;;22.55;;
59294;SDS011;45067;44.654;20.200;2022-12-29T03:32:52;37.65;;;22.45;;
59294;SDS011;45067;44.654;20.200;2022-12-29T03:35:21;39.00;;;22.85;;
59294;SDS011;45067;44.654;20.200;2022-12-29T03:40:32;37.28;;;23.48;;
59294;SDS011;45067;44.654;20.200;2022-12-29T03:42:59;39.80;;;23.20;;
59294;SDS011;45067;44.654;20.200;2022-12-29T03:45:25;38.22;;;23.55;;
59294;SDS011;45067;44.654;20.200;2022-12-29T03:47:51;38.85;;;22.63;;
59294;SDS011;45067;44.654;20.200;2022-12-29T03:56:25;37.38;;;23.20;;
59294;SDS011;45067;44.654;20.200;2022-12-29T03:58:51;42.10;;;24.50;;
59294;SDS011;45067;44.654;20.200;2022-12-29T04:01:19;42.50;;;24.70;;
59294;SDS011;45067;44.654;20.200;2022-12-29T04:03:45;41.20;;;25.17;;
59294;SDS011;45067;44.654;20.200;2022-12-29T04:06:11;39.58;;;24.85;;
59294;SDS011;45067;44.654;20.200;2022-12-29T04:08:37;42.88;;;24.00;;
59294;SDS011;45067;44.654;20.200;2022-12-29T04:11:03;38.40;;;23.98;;
59294;SDS011;45067;44.654;20.200;2022-12-29T04:13:29;39.85;;;24.65;;
59294;SDS011;45067;44.654;20.200;2022-12-29T04:15:55;36.92;;;23.08;;
59294;SDS011;45067;44.654;20.200;2022-12-29T04:18:21;37.25;;;22.48;;
59294;SDS011;45067;44.654;20.200;2022-12-29T04:20:47;38.45;;;23.35;;
59294;SDS011;45067;44.654;20.200;2022-12-29T04:23:26;38.38;;;23.13;;
59294;SDS011;45067;44.654;20.200;2022-12-29T04:25:52;39.00;;;23.05;;
59294;SDS011;45067;44.654;20.200;2022-12-29T04:28:18;39.22;;;23.27;;
59294;SDS011;45067;44.654;20.200;2022-12-29T04:30:44;40.10;;;23.88;;
59294;SDS011;45067;44.654;20.200;2022-12-29T04:33:11;37.33;;;23.42;;
59294;SDS011;45067;44.654;20.200;2022-12-29T04:35:37;36.28;;;22.80;;
59294;SDS011;45067;44.654;20.200;2022-12-29T04:38:03;37.90;;;23.45;;
59294;SDS011;45067;44.654;20.200;2022-12-29T04:40:29;37.45;;;23.60;;
59294;SDS011;45067;44.654;20.200;2022-12-29T04:42:55;43.78;;;25.63;;
59294;SDS011;45067;44.654;20.200;2022-12-29T04:45:21;42.42;;;24.85;;
59294;SDS011;45067;44.654;20.200;2022-12-29T04:47:47;40.78;;;23.83;;
59294;SDS011;45067;44.654;20.200;2022-12-29T04:50:13;47.35;;;25.63;;
59294;SDS011;45067;44.654;20.200;2022-12-29T04:55:43;42.08;;;23.33;;
59294;SDS011;45067;44.654;20.200;2022-12-29T04:58:10;40.30;;;23.80;;
59294;SDS011;45067;44.654;20.200;2022-12-29T05:00:36;40.35;;;24.48;;
59294;SDS011;45067;44.654;20.200;2022-12-29T05:03:02;37.00;;;22.70;;
59294;SDS011;45067;44.654;20.200;2022-12-29T05:05:28;37.17;;;22.80;;
59294;SDS011;45067;44.654;20.200;2022-12-29T05:10:58;37.60;;;22.63;;
59294;SDS011;45067;44.654;20.200;2022-12-29T05:13:24;46.47;;;24.58;;
59294;SDS011;45067;44.654;20.200;2022-12-29T05:15:50;38.38;;;23.83;;
59294;SDS011;45067;44.654;20.200;2022-12-29T05:18:17;41.30;;;25.00;;
59294;SDS011;45067;44.654;20.200;2022-12-29T05:20:43;43.78;;;24.05;;
59294;SDS011;45067;44.654;20.200;2022-12-29T05:26:12;36.53;;;22.90;;
59294;SDS011;45067;44.654;20.200;2022-12-29T05:28:38;41.25;;;24.45;;
59294;SDS011;45067;44.654;20.200;2022-12-29T05:31:04;38.58;;;22.25;;
59294;SDS011;45067;44.654;20.200;2022-12-29T05:33:30;33.38;;;21.55;;
59294;SDS011;45067;44.654;20.200;2022-12-29T05:35:56;36.20;;;20.90;;
59294;SDS011;45067;44.654;20.200;2022-12-29T05:38:22;37.40;;;22.52;;
59294;SDS011;45067;44.654;20.200;2022-12-29T05:40:48;34.25;;;21.17;;
59294;SDS011;45067;44.654;20.200;2022-12-29T05:43:14;35.30;;;21.05;;
59294;SDS011;45067;44.654;20.200;2022-12-29T05:45:40;36.15;;;20.77;;
59294;SDS011;45067;44.654;20.200;2022-12-29T05:48:06;35.13;;;22.23;;
59294;SDS011;45067;44.654;20.200;2022-12-29T05:50:32;34.53;;;21.27;;
59294;SDS011;45067;44.654;20.200;2022-12-29T05:56:02;32.92;;;20.40;;
59294;SDS011;45067;44.654;20.200;2022-12-29T05:58:28;35.47;;;21.05;;
59294;SDS011;45067;44.654;20.200;2022-12-29T06:00:54;33.22;;;21.73;;
59294;SDS011;45067;44.654;20.200;2022-12-29T06:03:20;33.15;;;21.23;;
59294;SDS011;45067;44.654;20.200;2022-12-29T06:05:46;37.40;;;22.48;;
59294;SDS011;45067;44.654;20.200;2022-12-29T06:11:16;33.25;;;21.42;;
59294;SDS011;45067;44.654;20.200;2022-12-29T06:13:42;35.08;;;21.17;;
59294;SDS011;45067;44.654;20.200;2022-12-29T06:16:08;38.00;;;20.50;;
59294;SDS011;45067;44.654;20.200;2022-12-29T06:18:34;36.30;;;22.40;;
59294;SDS011;45067;44.654;20.200;2022-12-29T06:21:01;37.28;;;21.67;;
59294;SDS011;45067;44.654;20.200;2022-12-29T06:26:30;34.55;;;21.15;;
59294;SDS011;45067;44.654;20.200;2022-12-29T06:28:56;35.97;;;21.88;;
59294;SDS011;45067;44.654;20.200;2022-12-29T06:31:22;33.45;;;21.30;;
59294;SDS011;45067;44.654;20.200;2022-12-29T06:33:48;35.15;;;20.60;;
59294;SDS011;45067;44.654;20.200;2022-12-29T06:36:14;40.13;;;22.70;;
59294;SDS011;45067;44.654;20.200;2022-12-29T06:41:44;38.10;;;22.17;;
59294;SDS011;45067;44.654;20.200;2022-12-29T06:44:10;38.00;;;24.23;;
59294;SDS011;45067;44.654;20.200;2022-12-29T06:46:36;36.55;;;23.20;;
59294;SDS011;45067;44.654;20.200;2022-12-29T06:49:02;38.15;;;21.33;;
59294;SDS011;45067;44.654;20.200;2022-12-29T06:51:28;38.25;;;21.67;;
59294;SDS011;45067;44.654;20.200;2022-12-29T06:53:54;37.88;;;22.02;;
59294;SDS011;45067;44.654;20.200;2022-12-29T06:56:20;35.65;;;21.13;;
59294;SDS011;45067;44.654;20.200;2022-12-29T06:58:46;38.80;;;22.98;;
59294;SDS011;45067;44.654;20.200;2022-12-29T07:01:12;33.67;;;21.90;;
59294;SDS011;45067;44.654;20.200;2022-12-29T07:03:40;37.97;;;23.52;;
59294;SDS011;45067;44.654;20.200;2022-12-29T07:06:08;39.58;;;24.40;;
59294;SDS011;45067;44.654;20.200;2022-12-29T07:11:39;40.05;;;23.02;;
59294;SDS011;45067;44.654;20.200;2022-12-29T07:14:05;43.58;;;23.30;;
59294;SDS011;45067;44.654;20.200;2022-12-29T07:16:31;37.70;;;22.42;;
59294;SDS011;45067;44.654;20.200;2022-12-29T07:18:59;37.20;;;22.77;;
59294;SDS011;45067;44.654;20.200;2022-12-29T07:21:25;42.58;;;24.38;;
59294;SDS011;45067;44.654;20.200;2022-12-29T07:26:54;36.10;;;22.98;;
59294;SDS011;45067;44.654;20.200;2022-12-29T07:29:21;41.47;;;24.50;;
59294;SDS011;45067;44.654;20.200;2022-12-29T07:31:48;39.92;;;23.85;;
59294;SDS011;45067;44.654;20.200;2022-12-29T07:34:14;42.22;;;25.20;;
59294;SDS011;45067;44.654;20.200;2022-12-29T07:36:40;37.97;;;23.90;;
59294;SDS011;45067;44.654;20.200;2022-12-29T07:39:06;39.90;;;24.13;;
59294;SDS011;45067;44.654;20.200;2022-12-29T07:41:32;37.70;;;24.67;;
59294;SDS011;45067;44.654;20.200;2022-12-29T07:43:58;38.60;;;25.80;;
59294;SDS011;45067;44.654;20.200;2022-12-29T07:46:24;40.75;;;24.20;;
59294;SDS011;45067;44.654;20.200;2022-12-29T07:48:50;47.38;;;25.30;;
59294;SDS011;45067;44.654;20.200;2022-12-29T07:51:16;41.17;;;24.35;;
59294;SDS011;45067;44.654;20.200;2022-12-29T07:56:45;42.90;;;24.83;;
59294;SDS011;45067;44.654;20.200;2022-12-29T07:59:11;45.47;;;25.60;;
59294;SDS011;45067;44.654;20.200;2022-12-29T08:01:38;42.13;;;24.70;;
59294;SDS011;45067;44.654;20.200;2022-12-29T08:04:04;45.85;;;26.08;;
59294;SDS011;45067;44.654;20.200;2022-12-29T08:06:30;43.95;;;25.67;;
59294;SDS011;45067;44.654;20.200;2022-12-29T08:12:00;48.17;;;26.17;;
59294;SDS011;45067;44.654;20.200;2022-12-29T08:14:26;44.13;;;26.77;;
59294;SDS011;45067;44.654;20.200;2022-12-29T08:16:52;45.25;;;25.30;;
59294;SDS011;45067;44.654;20.200;2022-12-29T08:19:18;41.65;;;24.67;;
59294;SDS011;45067;44.654;20.200;2022-12-29T08:21:44;41.78;;;25.40;;
59294;SDS011;45067;44.654;20.200;2022-12-29T08:27:14;40.20;;;24.20;;
59294;SDS011;45067;44.654;20.200;2022-12-29T08:29:40;41.55;;;25.40;;
59294;SDS011;45067;44.654;20.200;2022-12-29T08:32:06;47.53;;;26.30;;
59294;SDS011;45067;44.654;20.200;2022-12-29T08:34:32;40.97;;;22.90;;
59294;SDS011;45067;44.654;20.200;2022-12-29T08:36:58;35.17;;;22.90;;
59294;SDS011;45067;44.654;20.200;2022-12-29T08:39:24;33.35;;;23.20;;
59294;SDS011;45067;44.654;20.200;2022-12-29T08:41:50;33.25;;;23.70;;
59294;SDS011;45067;44.654;20.200;2022-12-29T08:44:16;31.02;;;22.90;;
59294;SDS011;45067;44.654;20.200;2022-12-29T08:46:42;47.80;;;28.80;;
59294;SDS011;45067;44.654;20.200;2022-12-29T08:49:08;42.88;;;28.17;;
59294;SDS011;45067;44.654;20.200;2022-12-29T08:51:34;33.80;;;23.42;;
59294;SDS011;45067;44.654;20.200;2022-12-29T08:57:04;32.67;;;21.73;;
59294;SDS011;45067;44.654;20.200;2022-12-29T08:59:30;29.75;;;20.83;;
59294;SDS011;45067;44.654;20.200;2022-12-29T09:01:56;30.95;;;21.92;;
59294;SDS011;45067;44.654;20.200;2022-12-29T09:04:22;33.10;;;22.58;;
59294;SDS011;45067;44.654;20.200;2022-12-29T09:06:48;34.50;;;22.08;;
59294;SDS011;45067;44.654;20.200;2022-12-29T09:12:18;33.92;;;21.40;;
59294;SDS011;45067;44.654;20.200;2022-12-29T09:14:46;34.67;;;20.98;;
59294;SDS011;45067;44.654;20.200;2022-12-29T09:17:12;35.00;;;20.77;;
59294;SDS011;45067;44.654;20.200;2022-12-29T09:19:57;34.55;;;20.85;;
59294;SDS011;45067;44.654;20.200;2022-12-29T09:22:23;30.90;;;20.30;;
59294;SDS011;45067;44.654;20.200;2022-12-29T09:24:49;33.45;;;21.15;;
59294;SDS011;45067;44.654;20.200;2022-12-29T09:27:15;35.60;;;21.60;;
59294;SDS011;45067;44.654;20.200;2022-12-29T09:29:41;31.08;;;20.50;;
59294;SDS011;45067;44.654;20.200;2022-12-29T09:32:07;33.25;;;21.27;;
59294;SDS011;45067;44.654;20.200;2022-12-29T09:34:33;33.85;;;20.45;;
59294;SDS011;45067;44.654;20.200;2022-12-29T09:36:59;32.88;;;20.33;;
59294;SDS011;45067;44.654;20.200;2022-12-29T09:42:36;29.15;;;18.88;;
59294;SDS011;45067;44.654;20.200;2022-12-29T09:45:18;30.15;;;18.90;;
59294;SDS011;45067;44.654;20.200;2022-12-29T09:47:49;32.05;;;18.35;;
59294;SDS011;45067;44.654;20.200;2022-12-29T09:52:47;29.23;;;16.90;;
59294;SDS011;45067;44.654;20.200;2022-12-29T09:55:16;25.77;;;16.90;;
59294;SDS011;45067;44.654;20.200;2022-12-29T10:02:59;24.85;;;16.45;;
59294;SDS011;45067;44.654;20.200;2022-12-29T10:10:56;30.35;;;15.77;;
59294;SDS011;45067;44.654;20.200;2022-12-29T10:15:54;21.70;;;12.82;;
59294;SDS011;45067;44.654;20.200;2022-12-29T10:21:08;25.55;;;14.20;;
59294;SDS011;45067;44.654;20.200;2022-12-29T10:23:40;23.92;;;15.00;;
59294;SDS011;45067;44.654;20.200;2022-12-29T10:26:10;23.38;;;13.77;;
59294;SDS011;45067;44.654;20.200;2022-12-29T10:31:09;21.30;;;12.63;;
59294;SDS011;45067;44.654;20.200;2022-12-29T10:33:36;21.40;;;11.95;;
59294;SDS011;45067;44.654;20.200;2022-12-29T10:41:47;20.77;;;13.35;;
59294;SDS011;45067;44.654;20.200;2022-12-29T10:44:15;26.83;;;14.20;;
59294;SDS011;45067;44.654;20.200;2022-12-29T10:46:42;26.48;;;14.45;;
59294;SDS011;45067;44.654;20.200;2022-12-29T10:49:16;23.75;;;15.93;;
59294;SDS011;45067;44.654;20.200;2022-12-29T10:51:43;21.20;;;14.98;;
59294;SDS011;45067;44.654;20.200;2022-12-29T10:56:40;21.75;;;15.82;;
59294;SDS011;45067;44.654;20.200;2022-12-29T11:01:50;20.45;;;14.60;;
59294;SDS011;45067;44.654;20.200;2022-12-29T11:07:03;18.85;;;14.30;;
59294;SDS011;45067;44.654;20.200;2022-12-29T11:09:29;22.08;;;15.65;;
59294;SDS011;45067;44.654;20.200;2022-12-29T11:11:55;25.83;;;17.42;;
59294;SDS011;45067;44.654;20.200;2022-12-29T11:14:29;23.80;;;17.73;;
59294;SDS011;45067;44.654;20.200;2022-12-29T11:16:59;19.45;;;15.90;;
59294;SDS011;45067;44.654;20.200;2022-12-29T11:19:26;23.10;;;17.65;;
59294;SDS011;45067;44.654;20.200;2022-12-29T11:21:53;23.10;;;16.73;;
59294;SDS011;45067;44.654;20.200;2022-12-29T11:24:20;22.73;;;17.30;;
59294;SDS011;45067;44.654;20.200;2022-12-29T11:26:48;23.15;;;18.20;;
59294;SDS011;45067;44.654;20.200;2022-12-29T11:29:37;24.33;;;18.35;;
59294;SDS011;45067;44.654;20.200;2022-12-29T11:34:56;23.90;;;19.58;;
59294;SDS011;45067;44.654;20.200;2022-12-29T11:37:26;24.63;;;19.55;;
59294;SDS011;45067;44.654;20.200;2022-12-29T11:39:57;28.42;;;22.70;;
59294;SDS011;45067;44.654;20.200;2022-12-29T11:43:11;29.73;;;21.40;;
59294;SDS011;45067;44.654;20.200;2022-12-29T11:47:36;27.70;;;21.77;;
59294;SDS011;45067;44.654;20.200;2022-12-29T11:50:04;32.92;;;22.88;;
59294;SDS011;45067;44.654;20.200;2022-12-29T11:52:31;32.95;;;23.85;;
59294;SDS011;45067;44.654;20.200;2022-12-29T11:55:00;37.20;;;24.33;;
59294;SDS011;45067;44.654;20.200;2022-12-29T11:57:27;37.83;;;24.95;;
59294;SDS011;45067;44.654;20.200;2022-12-29T11:59:54;37.33;;;26.15;;
59294;SDS011;45067;44.654;20.200;2022-12-29T12:04:57;41.30;;;27.70;;
59294;SDS011;45067;44.654;20.200;2022-12-29T12:07:42;41.20;;;27.80;;
59294;SDS011;45067;44.654;20.200;2022-12-29T12:10:31;44.90;;;28.83;;
59294;SDS011;45067;44.654;20.200;2022-12-29T12:15:27;43.40;;;28.60;;
59294;SDS011;45067;44.654;20.200;2022-12-29T12:18:00;42.42;;;27.85;;
59294;SDS011;45067;44.654;20.200;2022-12-29T12:20:32;46.00;;;27.48;;
59294;SDS011;45067;44.654;20.200;2022-12-29T12:26:12;38.10;;;27.08;;
59294;SDS011;45067;44.654;20.200;2022-12-29T12:28:50;35.47;;;26.40;;
59294;SDS011;45067;44.654;20.200;2022-12-29T12:31:21;37.10;;;25.05;;
59294;SDS011;45067;44.654;20.200;2022-12-29T12:33:50;40.92;;;27.13;;
59294;SDS011;45067;44.654;20.200;2022-12-29T12:36:27;35.53;;;26.52;;
59294;SDS011;45067;44.654;20.200;2022-12-29T12:44:31;32.67;;;21.23;;
59294;SDS011;45067;44.654;20.200;2022-12-29T13:00:14;19.30;;;9.68;;
59294;SDS011;45067;44.654;20.200;2022-12-29T13:13:15;17.48;;;9.65;;
59294;SDS011;45067;44.654;20.200;2022-12-29T13:16:01;21.42;;;10.35;;
59294;SDS011;45067;44.654;20.200;2022-12-29T13:18:52;18.88;;;10.80;;
59294;SDS011;45067;44.654;20.200;2022-12-29T13:26:22;19.27;;;12.30;;
59294;SDS011;45067;44.654;20.200;2022-12-29T13:28:53;27.48;;;12.73;;
59294;SDS011;45067;44.654;20.200;2022-12-29T13:31:24;21.98;;;12.30;;
59294;SDS011;45067;44.654;20.200;2022-12-29T13:38:46;20.85;;;12.80;;
59294;SDS011;45067;44.654;20.200;2022-12-29T13:41:25;23.95;;;12.65;;
59294;SDS011;45067;44.654;20.200;2022-12-29T13:43:53;18.75;;;11.32;;
59294;SDS011;45067;44.654;20.200;2022-12-29T13:46:24;19.75;;;11.15;;
59294;SDS011;45067;44.654;20.200;2022-12-29T13:48:51;20.42;;;11.43;;
59294;SDS011;45067;44.654;20.200;2022-12-29T13:51:19;24.05;;;10.73;;
59294;SDS011;45067;44.654;20.200;2022-12-29T13:56:14;23.00;;;11.10;;
59294;SDS011;45067;44.654;20.200;2022-12-29T14:03:47;21.52;;;11.32;;
59294;SDS011;45067;44.654;20.200;2022-12-29T14:06:28;19.85;;;12.02;;
59294;SDS011;45067;44.654;20.200;2022-12-29T14:08:57;22.83;;;12.88;;
59294;SDS011;45067;44.654;20.200;2022-12-29T14:11:29;20.63;;;11.57;;
59294;SDS011;45067;44.654;20.200;2022-12-29T14:13:56;21.63;;;12.63;;
59294;SDS011;45067;44.654;20.200;2022-12-29T14:16:32;18.52;;;12.15;;
59294;SDS011;45067;44.654;20.200;2022-12-29T14:19:09;24.35;;;13.93;;
59294;SDS011;45067;44.654;20.200;2022-12-29T14:21:36;22.27;;;12.13;;
59294;SDS011;45067;44.654;20.200;2022-12-29T14:26:48;22.13;;;12.55;;
59294;SDS011;45067;44.654;20.200;2022-12-29T14:31:49;21.95;;;13.55;;
59294;SDS011;45067;44.654;20.200;2022-12-29T14:34:25;24.15;;;13.70;;
59294;SDS011;45067;44.654;20.200;2022-12-29T14:39:32;19.27;;;11.90;;
59294;SDS011;45067;44.654;20.200;2022-12-29T14:44:26;22.58;;;13.52;;
59294;SDS011;45067;44.654;20.200;2022-12-29T14:49:25;21.75;;;12.13;;
59294;SDS011;45067;44.654;20.200;2022-12-29T14:51:53;28.25;;;14.18;;
59294;SDS011;45067;44.654;20.200;2022-12-29T14:56:59;35.10;;;18.85;;
59294;SDS011;45067;44.654;20.200;2022-12-29T14:59:27;35.17;;;20.95;;
59294;SDS011;45067;44.654;20.200;2022-12-29T15:01:54;42.40;;;24.60;;
59294;SDS011;45067;44.654;20.200;2022-12-29T15:04:30;45.83;;;24.15;;
59294;SDS011;45067;44.654;20.200;2022-12-29T15:06:57;44.03;;;23.65;;
59294;SDS011;45067;44.654;20.200;2022-12-29T15:11:55;24.95;;;12.95;;
59294;SDS011;45067;44.654;20.200;2022-12-29T15:14:30;19.70;;;11.80;;
59294;SDS011;45067;44.654;20.200;2022-12-29T15:16:56;16.00;;;9.85;;
59294;SDS011;45067;44.654;20.200;2022-12-29T15:19:23;22.80;;;12.13;;
59294;SDS011;45067;44.654;20.200;2022-12-29T15:21:49;19.63;;;11.43;;
59294;SDS011;45067;44.654;20.200;2022-12-29T15:24:15;27.60;;;13.98;;
59294;SDS011;45067;44.654;20.200;2022-12-29T15:26:42;26.35;;;14.02;;
59294;SDS011;45067;44.654;20.200;2022-12-29T15:29:32;28.15;;;14.30;;
59294;SDS011;45067;44.654;20.200;2022-12-29T15:31:59;32.92;;;17.58;;
59294;SDS011;45067;44.654;20.200;2022-12-29T15:34:29;26.75;;;16.08;;
59294;SDS011;45067;44.654;20.200;2022-12-29T15:36:55;29.15;;;16.65;;
59294;SDS011;45067;44.654;20.200;2022-12-29T15:39:28;24.92;;;15.60;;
59294;SDS011;45067;44.654;20.200;2022-12-29T15:41:56;26.48;;;14.73;;
59294;SDS011;45067;44.654;20.200;2022-12-29T15:44:32;25.13;;;14.05;;
59294;SDS011;45067;44.654;20.200;2022-12-29T15:47:19;25.83;;;15.57;;
59294;SDS011;45067;44.654;20.200;2022-12-29T15:49:53;28.73;;;16.33;;
59294;SDS011;45067;44.654;20.200;2022-12-29T15:52:21;26.77;;;15.55;;
59294;SDS011;45067;44.654;20.200;2022-12-29T15:54:49;26.40;;;15.55;;
59294;SDS011;45067;44.654;20.200;2022-12-29T15:57:36;27.38;;;15.63;;
59294;SDS011;45067;44.654;20.200;2022-12-29T16:00:03;24.80;;;15.05;;
59294;SDS011;45067;44.654;20.200;2022-12-29T16:02:29;21.92;;;13.15;;
59294;SDS011;45067;44.654;20.200;2022-12-29T16:04:56;22.98;;;13.10;;
59294;SDS011;45067;44.654;20.200;2022-12-29T16:07:26;25.65;;;14.63;;
59294;SDS011;45067;44.654;20.200;2022-12-29T16:09:54;22.48;;;13.90;;
59294;SDS011;45067;44.654;20.200;2022-12-29T16:12:21;22.60;;;13.52;;
59294;SDS011;45067;44.654;20.200;2022-12-29T16:14:50;23.50;;;13.23;;
59294;SDS011;45067;44.654;20.200;2022-12-29T16:17:17;24.75;;;13.55;;
59294;SDS011;45067;44.654;20.200;2022-12-29T16:19:49;20.63;;;12.25;;
59294;SDS011;45067;44.654;20.200;2022-12-29T16:22:17;21.63;;;12.65;;
59294;SDS011;45067;44.654;20.200;2022-12-29T16:24:46;22.35;;;13.85;;
59294;SDS011;45067;44.654;20.200;2022-12-29T16:27:22;23.42;;;14.73;;
59294;SDS011;45067;44.654;20.200;2022-12-29T16:29:53;22.13;;;12.60;;
59294;SDS011;45067;44.654;20.200;2022-12-29T16:32:27;22.73;;;13.60;;
59294;SDS011;45067;44.654;20.200;2022-12-29T16:35:09;21.50;;;13.55;;
59294;SDS011;45067;44.654;20.200;2022-12-29T16:37:36;29.77;;;14.88;;
59294;SDS011;45067;44.654;20.200;2022-12-29T16:42:45;27.98;;;15.65;;
59294;SDS011;45067;44.654;20.200;2022-12-29T16:50:30;26.20;;;14.00;;
59294;SDS011;45067;44.654;20.200;2022-12-29T16:52:57;23.80;;;14.65;;
59294;SDS011;45067;44.654;20.200;2022-12-29T16:55:23;21.63;;;12.48;;
59294;SDS011;45067;44.654;20.200;2022-12-29T16:57:50;21.85;;;13.20;;
59294;SDS011;45067;44.654;20.200;2022-12-29T17:00:21;25.48;;;14.57;;
59294;SDS011;45067;44.654;20.200;2022-12-29T17:02:48;25.63;;;15.63;;
59294;SDS011;45067;44.654;20.200;2022-12-29T17:05:15;23.10;;;13.60;;
59294;SDS011;45067;44.654;20.200;2022-12-29T17:07:41;24.88;;;14.63;;
59294;SDS011;45067;44.654;20.200;2022-12-29T17:10:07;30.02;;;15.85;;
59294;SDS011;45067;44.654;20.200;2022-12-29T17:12:34;22.25;;;13.05;;
59294;SDS011;45067;44.654;20.200;2022-12-29T17:15:02;25.65;;;13.82;;
59294;SDS011;45067;44.654;20.200;2022-12-29T17:19:59;24.90;;;13.07;;
59294;SDS011;45067;44.654;20.200;2022-12-29T17:22:28;22.20;;;12.77;;
59294;SDS011;45067;44.654;20.200;2022-12-29T17:24:58;20.60;;;11.98;;
59294;SDS011;45067;44.654;20.200;2022-12-29T17:29:55;19.83;;;11.32;;
59294;SDS011;45067;44.654;20.200;2022-12-29T17:32:22;19.95;;;11.45;;
59294;SDS011;45067;44.654;20.200;2022-12-29T17:34:48;18.17;;;10.93;;
59294;SDS011;45067;44.654;20.200;2022-12-29T17:39:49;20.67;;;11.88;;
59294;SDS011;45067;44.654;20.200;2022-12-29T17:42:16;19.02;;;11.38;;
59294;SDS011;45067;44.654;20.200;2022-12-29T17:44:43;18.83;;;11.55;;
59294;SDS011;45067;44.654;20.200;2022-12-29T17:47:09;20.95;;;10.55;;
59294;SDS011;45067;44.654;20.200;2022-12-29T17:49:36;20.58;;;10.93;;
59294;SDS011;45067;44.654;20.200;2022-12-29T17:52:02;19.42;;;11.35;;
59294;SDS011;45067;44.654;20.200;2022-12-29T17:54:29;24.88;;;12.27;;
59294;SDS011;45067;44.654;20.200;2022-12-29T17:59:58;16.83;;;9.82;;
59294;SDS011;45067;44.654;20.200;2022-12-29T18:02:26;19.33;;;10.88;;
59294;SDS011;45067;44.654;20.200;2022-12-29T18:04:53;20.67;;;10.88;;
59294;SDS011;45067;44.654;20.200;2022-12-29T18:07:19;19.33;;;10.80;;
59294;SDS011;45067;44.654;20.200;2022-12-29T18:09:46;26.85;;;12.20;;
59294;SDS011;45067;44.654;20.200;2022-12-29T18:12:19;24.35;;;12.63;;
59294;SDS011;45067;44.654;20.200;2022-12-29T18:14:50;21.10;;;12.00;;
59294;SDS011;45067;44.654;20.200;2022-12-29T18:17:16;23.98;;;12.93;;